Time;durP1;ratioP1;P1;durP2;ratioP2;P2;SDS_P1;SDS_P2;PMS_P1;PMS_P2;Temp;Humidity;BMP_temperature;BMP_pressure;BME280_temperature;BME280_humidity;BME280_pressure;Samples;Min_cycle;Max_cycle;Signal;HPM_P1;HPM_P2
2023/09/12 00:01:42;;;;;;;14.73;9.88;;;16.50;99.90;;;;;;5018358;28;20038;-79
2023/09/12 00:04:08;;;;;;;15.13;9.95;;;16.50;99.90;;;;;;5027355;28;20048;-80
2023/09/12 00:06:33;;;;;;;12.23;10.50;;;16.40;99.90;;;;;;5016227;28;20033;-80
2023/09/12 00:08:59;;;;;;;14.88;10.27;;;16.40;99.90;;;;;;5020997;28;20030;-81
2023/09/12 00:11:25;;;;;;;12.48;9.63;;;16.40;99.90;;;;;;5015198;28;20041;-80
2023/09/12 00:13:51;;;;;;;11.60;9.48;;;16.40;99.90;;;;;;5024974;28;20033;-82
2023/09/12 00:16:17;;;;;;;12.70;9.60;;;16.40;99.90;;;;;;5013688;28;20026;-81
2023/09/12 00:18:43;;;;;;;11.43;9.20;;;16.40;99.90;;;;;;5019355;28;20036;-81
2023/09/12 00:21:09;;;;;;;12.52;9.52;;;16.40;99.90;;;;;;5020903;28;20527;-81
2023/09/12 00:23:35;;;;;;;14.63;9.75;;;16.30;99.90;;;;;;5021526;28;20793;-81
2023/09/12 00:26:01;;;;;;;11.95;9.23;;;16.30;99.90;;;;;;5018475;28;20030;-81
2023/09/12 00:28:27;;;;;;;12.27;8.55;;;16.30;99.90;;;;;;5021466;28;20100;-81
2023/09/12 00:30:53;;;;;;;10.68;9.15;;;16.30;99.90;;;;;;5014399;28;20128;-81
2023/09/12 00:33:19;;;;;;;14.27;8.75;;;16.20;99.90;;;;;;5038258;28;20034;-81
2023/09/12 00:35:45;;;;;;;13.18;8.95;;;16.20;99.90;;;;;;5015907;28;20030;-81
2023/09/12 00:38:11;;;;;;;12.48;9.57;;;16.20;99.90;;;;;;5021291;28;20452;-81
2023/09/12 00:40:37;;;;;;;12.13;8.85;;;16.10;99.90;;;;;;5020822;28;20030;-82
2023/09/12 00:43:03;;;;;;;14.35;9.85;;;16.10;99.90;;;;;;5029314;28;20120;-81
2023/09/12 00:45:29;;;;;;;12.25;9.02;;;16.10;99.90;;;;;;5038353;28;20076;-80
2023/09/12 00:48:02;;;;;;;13.00;9.93;;;16.10;99.90;;;;;;5019313;28;20067;-80
2023/09/12 00:50:29;;;;;;;11.82;9.52;;;16.10;99.90;;;;;;5012038;28;20112;-80
2023/09/12 00:52:55;;;;;;;11.75;9.65;;;16.10;99.90;;;;;;5020854;28;20041;-81
2023/09/12 00:55:21;;;;;;;13.07;10.48;;;16.10;99.90;;;;;;5021712;28;20164;-80
2023/09/12 00:57:48;;;;;;;11.70;10.20;;;16.00;99.90;;;;;;5021529;28;20057;-80
2023/09/12 01:00:14;;;;;;;13.45;10.48;;;16.00;99.90;;;;;;5003791;28;20041;-81
2023/09/12 01:02:42;;;;;;;12.77;9.40;;;16.00;99.90;;;;;;5026205;28;20030;-82
2023/09/12 01:05:09;;;;;;;11.80;9.48;;;16.00;99.90;;;;;;5033013;28;20037;-81
2023/09/12 01:07:36;;;;;;;10.32;8.68;;;16.00;99.90;;;;;;5007129;28;20114;-80
2023/09/12 01:10:06;;;;;;;13.10;9.15;;;15.90;99.90;;;;;;5004357;28;20043;-83
2023/09/12 01:12:32;;;;;;;14.35;9.85;;;15.90;99.90;;;;;;5016295;28;20099;-83
2023/09/12 01:14:58;;;;;;;14.45;11.32;;;15.90;99.90;;;;;;5017705;28;20038;-81
2023/09/12 01:17:24;;;;;;;12.13;10.75;;;15.80;99.90;;;;;;5001238;28;20083;-82
2023/09/12 01:19:51;;;;;;;11.93;9.93;;;15.90;99.90;;;;;;5011760;28;20096;-82
2023/09/12 01:22:35;;;;;;;14.30;9.95;;;15.90;99.90;;;;;;5012111;28;20468;-82
2023/09/12 01:25:04;;;;;;;19.17;10.60;;;15.80;99.90;;;;;;5013237;28;20522;-82
2023/09/12 01:27:45;;;;;;;12.30;9.88;;;15.80;99.90;;;;;;5014967;28;20158;-83
2023/09/12 01:30:14;;;;;;;12.20;9.98;;;15.80;99.90;;;;;;5019772;28;20044;-83
2023/09/12 01:32:42;;;;;;;12.23;10.30;;;15.70;99.90;;;;;;5032615;28;20037;-82
2023/09/12 01:35:08;;;;;;;16.23;11.25;;;15.70;99.90;;;;;;5013827;28;20033;-82
2023/09/12 01:37:34;;;;;;;13.93;11.52;;;15.70;99.90;;;;;;5021325;28;20029;-83
2023/09/12 01:40:03;;;;;;;17.00;11.15;;;15.60;99.90;;;;;;5019880;28;20124;-82
2023/09/12 01:42:35;;;;;;;14.10;11.02;;;15.60;99.90;;;;;;5015695;28;20095;-83
2023/09/12 01:45:02;;;;;;;14.45;11.43;;;15.60;99.90;;;;;;5039859;28;20433;-82
2023/09/12 01:47:29;;;;;;;11.52;10.35;;;15.50;99.90;;;;;;4996689;28;20128;-81
2023/09/12 01:49:57;;;;;;;15.40;10.82;;;15.50;99.90;;;;;;4999531;28;20392;-83
2023/09/12 01:52:26;;;;;;;12.55;10.13;;;15.50;99.90;;;;;;5015829;28;20029;-83
2023/09/12 01:54:53;;;;;;;11.45;10.20;;;15.50;99.90;;;;;;5012871;28;20695;-82
2023/09/12 01:57:20;;;;;;;15.18;10.38;;;15.40;99.90;;;;;;5020963;28;20029;-80
2023/09/12 01:59:50;;;;;;;12.38;10.02;;;15.40;99.90;;;;;;5034989;28;20104;-81
2023/09/12 02:02:16;;;;;;;16.25;11.73;;;15.40;99.90;;;;;;5033806;28;20040;-82
2023/09/12 02:04:54;;;;;;;14.77;10.70;;;15.40;99.90;;;;;;5016421;28;20021;-82
2023/09/12 02:07:23;;;;;;;21.80;12.23;;;15.30;99.90;;;;;;5028754;28;20044;-82
2023/09/12 02:09:48;;;;;;;14.27;10.38;;;15.30;99.90;;;;;;5022007;28;20447;-81
2023/09/12 02:12:14;;;;;;;13.52;10.90;;;15.30;99.90;;;;;;5016905;28;20092;-80
2023/09/12 02:14:40;;;;;;;14.55;9.93;;;15.20;99.90;;;;;;5005623;28;20121;-81
2023/09/12 02:17:06;;;;;;;14.90;10.43;;;15.20;99.90;;;;;;5032767;28;20049;-81
2023/09/12 02:19:31;;;;;;;12.55;10.25;;;15.20;99.90;;;;;;5011781;28;20022;-82
2023/09/12 02:21:57;;;;;;;12.90;10.57;;;15.20;99.90;;;;;;5025546;28;20029;-82
2023/09/12 02:24:24;;;;;;;13.60;10.00;;;15.20;99.90;;;;;;5013647;28;20137;-82
2023/09/12 02:26:49;;;;;;;11.30;10.00;;;15.20;99.90;;;;;;5015537;28;20120;-82
2023/09/12 02:29:15;;;;;;;15.82;10.40;;;15.20;99.90;;;;;;5016970;28;20465;-82
2023/09/12 02:31:41;;;;;;;16.20;10.77;;;15.10;99.90;;;;;;5015091;28;20041;-80
2023/09/12 02:34:07;;;;;;;13.55;10.80;;;15.10;99.90;;;;;;5015804;28;20045;-80
2023/09/12 02:36:33;;;;;;;15.05;10.02;;;15.10;99.90;;;;;;5014871;28;20037;-81
2023/09/12 02:38:59;;;;;;;13.90;10.73;;;15.10;99.90;;;;;;5012087;28;20117;-81
2023/09/12 02:41:26;;;;;;;13.90;10.88;;;15.10;99.90;;;;;;5016837;28;20061;-81
2023/09/12 02:44:10;;;;;;;14.93;11.33;;;15.10;99.90;;;;;;5020124;28;20426;-81
2023/09/12 02:46:37;;;;;;;18.48;11.88;;;15.10;99.90;;;;;;5015976;28;20034;-82
2023/09/12 02:49:03;;;;;;;13.60;10.40;;;15.00;99.90;;;;;;5016624;28;20025;-82
2023/09/12 02:51:29;;;;;;;14.82;11.50;;;15.10;99.90;;;;;;5024589;28;20029;-82
2023/09/12 02:53:55;;;;;;;12.98;11.00;;;15.00;99.90;;;;;;5023736;28;20115;-81
2023/09/12 02:56:21;;;;;;;18.90;11.07;;;15.00;99.90;;;;;;5017684;28;20061;-80
2023/09/12 02:58:47;;;;;;;14.80;10.35;;;14.90;99.90;;;;;;5004274;28;20104;-81
2023/09/12 03:01:21;;;;;;;12.63;10.10;;;15.00;99.90;;;;;;5037787;28;20029;-80
2023/09/12 03:03:48;;;;;;;14.80;10.23;;;14.90;99.90;;;;;;5013752;28;20026;-80
2023/09/12 03:06:15;;;;;;;14.65;10.73;;;14.90;99.90;;;;;;5019207;28;20117;-80
2023/09/12 03:08:43;;;;;;;13.23;9.95;;;14.90;99.90;;;;;;5022767;28;20059;-81
2023/09/12 03:11:09;;;;;;;13.30;10.63;;;14.90;99.90;;;;;;5033535;28;20031;-81
2023/09/12 03:13:36;;;;;;;12.60;10.18;;;14.90;99.90;;;;;;5031306;28;20033;-81
2023/09/12 03:16:02;;;;;;;16.65;10.43;;;14.80;99.90;;;;;;5015380;28;20049;-80
2023/09/12 03:18:28;;;;;;;12.18;10.25;;;14.80;99.90;;;;;;5035292;28;20030;-81
2023/09/12 03:20:54;;;;;;;14.43;11.07;;;14.80;99.90;;;;;;5011093;28;20030;-80
2023/09/12 03:23:20;;;;;;;15.15;10.38;;;14.80;99.90;;;;;;5021904;28;20022;-81
2023/09/12 03:25:47;;;;;;;14.23;11.10;;;14.80;99.90;;;;;;5024926;28;20034;-81
2023/09/12 03:28:14;;;;;;;12.85;10.27;;;14.80;99.90;;;;;;5025945;28;20036;-81
2023/09/12 03:30:39;;;;;;;14.50;10.52;;;14.80;99.90;;;;;;5018428;28;20025;-82
2023/09/12 03:33:06;;;;;;;17.00;11.35;;;14.80;99.90;;;;;;5020428;28;20038;-80
2023/09/12 03:35:34;;;;;;;14.57;11.48;;;14.80;99.90;;;;;;5018685;28;20351;-82
2023/09/12 03:38:00;;;;;;;14.13;10.18;;;14.80;99.90;;;;;;5021029;28;20120;-80
2023/09/12 03:40:30;;;;;;;14.73;11.43;;;14.70;99.90;;;;;;5034949;28;20032;-81
2023/09/12 03:42:56;;;;;;;16.27;10.65;;;14.70;99.90;;;;;;5008432;28;20031;-81
2023/09/12 03:45:23;;;;;;;12.50;10.15;;;14.70;99.90;;;;;;5025837;28;20132;-81
2023/09/12 03:47:49;;;;;;;16.98;11.40;;;14.70;99.90;;;;;;5010614;28;20030;-80
2023/09/12 03:50:16;;;;;;;14.73;11.35;;;14.70;99.90;;;;;;5032087;28;20041;-82
2023/09/12 03:52:42;;;;;;;15.00;10.80;;;14.70;99.90;;;;;;5006500;28;20093;-79
2023/09/12 03:55:08;;;;;;;12.57;10.52;;;14.70;99.90;;;;;;5023602;28;20030;-81
2023/09/12 03:57:34;;;;;;;14.00;11.25;;;14.70;99.90;;;;;;5019325;28;20569;-81
2023/09/12 04:00:00;;;;;;;16.42;11.35;;;14.70;99.90;;;;;;5012241;28;20034;-82
2023/09/12 04:02:26;;;;;;;15.25;11.65;;;14.60;99.90;;;;;;5030265;28;20038;-80
2023/09/12 04:04:52;;;;;;;16.67;11.60;;;14.70;99.90;;;;;;5015910;28;20033;-80
2023/09/12 04:07:18;;;;;;;17.02;11.90;;;14.60;99.90;;;;;;5027568;28;20112;-80
2023/09/12 04:09:44;;;;;;;16.40;12.63;;;14.60;99.90;;;;;;5016611;28;20021;-81
2023/09/12 04:12:10;;;;;;;16.45;11.98;;;14.60;99.90;;;;;;5026546;28;20081;-81
2023/09/12 04:14:36;;;;;;;15.45;12.25;;;14.50;99.90;;;;;;4995327;28;20127;-80
2023/09/12 04:17:03;;;;;;;15.15;11.45;;;14.50;99.90;;;;;;5011890;28;20026;-80
2023/09/12 04:19:31;;;;;;;17.02;11.65;;;14.50;99.90;;;;;;5033891;28;20022;-80
2023/09/12 04:21:57;;;;;;;15.88;12.25;;;14.60;99.90;;;;;;5000945;28;20033;-80
2023/09/12 04:24:23;;;;;;;15.45;11.32;;;14.50;99.90;;;;;;5017563;28;20049;-80
2023/09/12 04:26:49;;;;;;;16.13;11.45;;;14.50;99.90;;;;;;5013687;28;20033;-82
2023/09/12 04:29:14;;;;;;;15.15;12.00;;;14.50;99.90;;;;;;5019856;28;20532;-82
2023/09/12 04:31:40;;;;;;;16.25;11.25;;;14.50;99.90;;;;;;5013230;28;20030;-81
2023/09/12 04:34:06;;;;;;;16.95;11.73;;;14.50;99.90;;;;;;5009231;28;20057;-80
2023/09/12 04:36:32;;;;;;;14.88;11.77;;;14.50;99.90;;;;;;5012397;28;20030;-81
2023/09/12 04:38:59;;;;;;;14.93;10.57;;;14.50;99.90;;;;;;5015917;28;20076;-80
2023/09/12 04:41:25;;;;;;;14.65;11.73;;;14.50;99.90;;;;;;4998728;28;20054;-82
2023/09/12 04:43:50;;;;;;;15.40;12.10;;;14.50;99.90;;;;;;4989794;28;20281;-82
2023/09/12 04:46:16;;;;;;;14.00;11.70;;;14.50;99.90;;;;;;5011066;28;20121;-81
2023/09/12 04:48:43;;;;;;;15.20;11.43;;;14.50;99.90;;;;;;5015958;28;20433;-81
2023/09/12 04:51:09;;;;;;;14.05;12.00;;;14.50;99.90;;;;;;5012616;28;20034;-82
2023/09/12 04:53:35;;;;;;;19.63;12.07;;;14.50;99.90;;;;;;5016940;28;20029;-82
2023/09/12 04:56:03;;;;;;;16.13;12.60;;;14.50;99.90;;;;;;5015689;28;20041;-81
2023/09/12 04:58:29;;;;;;;17.35;12.57;;;14.50;99.90;;;;;;4998785;28;20464;-82
2023/09/12 05:00:55;;;;;;;16.52;12.63;;;14.50;99.90;;;;;;5005073;28;20018;-81
2023/09/12 05:03:24;;;;;;;15.98;12.48;;;14.50;99.90;;;;;;5021622;28;20026;-82
2023/09/12 05:05:50;;;;;;;17.73;12.13;;;14.50;99.90;;;;;;5015150;28;20030;-82
2023/09/12 05:08:17;;;;;;;15.48;12.70;;;14.50;99.90;;;;;;5025924;28;20064;-82
2023/09/12 05:10:47;;;;;;;17.95;12.50;;;14.50;99.90;;;;;;5014711;28;20092;-81
2023/09/12 05:13:13;;;;;;;19.35;14.50;;;14.50;99.90;;;;;;5009508;28;20033;-81
2023/09/12 05:15:40;;;;;;;16.10;13.30;;;14.50;99.90;;;;;;5010928;28;20524;-81
2023/09/12 05:18:07;;;;;;;18.17;13.45;;;14.60;99.90;;;;;;5039077;28;20124;-81
2023/09/12 05:20:36;;;;;;;15.30;12.80;;;14.60;99.90;;;;;;5034998;28;20026;-81
2023/09/12 05:23:03;;;;;;;16.38;12.63;;;14.70;99.90;;;;;;5019327;28;20026;-80
2023/09/12 05:25:29;;;;;;;16.08;12.90;;;14.70;99.90;;;;;;5011494;28;20656;-80
2023/09/12 05:27:56;;;;;;;16.40;12.32;;;14.70;99.90;;;;;;5011098;28;20034;-81
2023/09/12 05:30:23;;;;;;;15.40;12.82;;;14.80;99.90;;;;;;5037858;28;20112;-79
2023/09/12 05:32:49;;;;;;;16.58;11.50;;;14.90;99.90;;;;;;5001151;28;20478;-80
2023/09/12 05:35:14;;;;;;;14.80;10.93;;;14.90;99.90;;;;;;5016807;28;20037;-80
2023/09/12 05:37:40;;;;;;;17.15;12.93;;;14.90;99.90;;;;;;4996779;28;20057;-79
2023/09/12 05:40:07;;;;;;;14.35;10.77;;;15.00;99.90;;;;;;5019639;28;20050;-81
2023/09/12 05:42:32;;;;;;;13.23;10.60;;;15.00;99.90;;;;;;5008618;28;20026;-79
2023/09/12 05:44:58;;;;;;;14.05;10.15;;;15.10;99.90;;;;;;5035519;28;20030;-80
2023/09/12 05:47:24;;;;;;;11.00;9.20;;;15.20;99.90;;;;;;5033180;28;20034;-80
2023/09/12 05:49:50;;;;;;;11.02;8.77;;;15.30;99.90;;;;;;5017522;28;20088;-79
2023/09/12 05:52:16;;;;;;;12.68;8.68;;;15.40;99.90;;;;;;5034377;28;20083;-80
2023/09/12 05:54:42;;;;;;;13.95;9.57;;;15.50;99.90;;;;;;5029076;28;20542;-79
2023/09/12 05:57:09;;;;;;;12.18;9.75;;;15.70;99.90;;;;;;5020056;28;20605;-80
2023/09/12 05:59:37;;;;;;;15.75;10.13;;;15.80;99.90;;;;;;5004511;28;20029;-80
2023/09/12 06:02:09;;;;;;;13.50;9.73;;;15.90;99.90;;;;;;5007636;28;20083;-81
2023/09/12 06:04:36;;;;;;;11.50;9.82;;;16.10;99.90;;;;;;5023087;28;20053;-81
2023/09/12 06:07:20;;;;;;;14.82;10.32;;;16.30;99.90;;;;;;5012786;28;20607;-79
2023/09/12 06:09:47;;;;;;;13.07;10.55;;;16.40;99.90;;;;;;5009378;28;20061;-81
2023/09/12 06:12:12;;;;;;;13.93;10.65;;;16.60;99.90;;;;;;5007729;28;20034;-81
2023/09/12 06:14:38;;;;;;;13.80;9.63;;;16.70;99.90;;;;;;5008915;28;20034;-81
2023/09/12 06:17:04;;;;;;;16.08;12.40;;;16.70;99.90;;;;;;5007437;28;20060;-80
2023/09/12 06:19:30;;;;;;;15.65;11.65;;;16.80;99.90;;;;;;5020684;28;20053;-81
2023/09/12 06:21:56;;;;;;;14.25;11.93;;;16.70;99.90;;;;;;5021354;28;20033;-80
2023/09/12 06:24:23;;;;;;;16.05;11.73;;;16.80;99.90;;;;;;5015187;28;20553;-81
2023/09/12 06:26:49;;;;;;;14.63;11.02;;;16.80;99.90;;;;;;5012648;28;20270;-81
2023/09/12 06:29:15;;;;;;;14.18;11.45;;;16.90;99.90;;;;;;5010922;28;20044;-82
2023/09/12 06:31:41;;;;;;;16.17;13.25;;;17.10;99.90;;;;;;5015436;28;20226;-82
2023/09/12 06:34:07;;;;;;;14.05;11.55;;;17.20;99.90;;;;;;5016642;28;20073;-81
2023/09/12 06:36:33;;;;;;;16.88;12.55;;;17.30;99.90;;;;;;5014604;28;20033;-82
2023/09/12 06:39:00;;;;;;;16.05;12.70;;;17.40;99.90;;;;;;5009354;28;20026;-83
2023/09/12 06:41:26;;;;;;;17.75;13.82;;;17.60;99.90;;;;;;5010113;28;20036;-82
2023/09/12 06:43:52;;;;;;;18.52;13.07;;;17.70;99.90;;;;;;5006199;28;20512;-83
2023/09/12 06:46:18;;;;;;;23.27;17.08;;;17.80;99.90;;;;;;5013761;28;20042;-83
2023/09/12 06:48:45;;;;;;;14.13;12.35;;;18.00;99.90;;;;;;5007468;28;20036;-81
2023/09/12 06:51:12;;;;;;;17.45;12.23;;;18.20;99.90;;;;;;5009374;28;20084;-81
2023/09/12 06:53:37;;;;;;;15.90;12.50;;;18.30;99.90;;;;;;5003975;28;20034;-82
2023/09/12 06:56:07;;;;;;;14.32;11.55;;;18.50;99.90;;;;;;5014552;28;20041;-83
2023/09/12 06:58:33;;;;;;;13.20;11.00;;;18.70;99.90;;;;;;5023714;28;20025;-83
2023/09/12 07:01:06;;;;;;;15.23;11.32;;;18.90;99.90;;;;;;5015164;28;20162;-82
2023/09/12 07:03:32;;;;;;;26.90;16.65;;;19.10;99.90;;;;;;5012691;28;20115;-82
2023/09/12 07:05:58;;;;;;;22.50;16.55;;;19.20;99.90;;;;;;4998056;28;20045;-84
2023/09/12 07:08:24;;;;;;;22.52;17.92;;;19.30;99.90;;;;;;5032401;28;20030;-84
2023/09/12 07:10:50;;;;;;;17.90;12.35;;;19.40;99.90;;;;;;5011305;28;20096;-83
2023/09/12 07:13:16;;;;;;;14.80;12.77;;;19.60;99.90;;;;;;5018611;28;20682;-82
2023/09/12 07:15:42;;;;;;;22.60;18.10;;;19.80;99.90;;;;;;5019256;28;20560;-82
2023/09/12 07:18:08;;;;;;;24.33;18.65;;;19.90;99.90;;;;;;5019246;28;20201;-81
2023/09/12 07:20:34;;;;;;;26.85;18.83;;;20.10;99.90;;;;;;5014597;28;20083;-82
2023/09/12 07:23:00;;;;;;;21.15;17.15;;;20.10;99.90;;;;;;5005973;28;20034;-80
2023/09/12 07:25:26;;;;;;;26.92;18.92;;;20.40;99.90;;;;;;5012688;28;20029;-81
2023/09/12 07:27:52;;;;;;;27.42;18.45;;;20.50;99.90;;;;;;5017153;28;20578;-80
2023/09/12 07:30:18;;;;;;;21.30;17.52;;;20.40;99.90;;;;;;5021810;28;20038;-81
2023/09/12 07:32:44;;;;;;;21.90;16.98;;;20.40;99.90;;;;;;5006753;28;20470;-79
2023/09/12 07:35:10;;;;;;;22.50;17.92;;;20.40;99.90;;;;;;5007692;28;20133;-81
2023/09/12 07:37:36;;;;;;;21.67;16.45;;;20.60;99.90;;;;;;4999816;28;20084;-81
2023/09/12 07:40:09;;;;;;;19.27;16.60;;;20.60;99.90;;;;;;5017865;28;20037;-82
2023/09/12 07:42:35;;;;;;;22.75;16.25;;;20.80;99.90;;;;;;5005833;28;20065;-82
2023/09/12 07:45:03;;;;;;;21.42;16.83;;;20.80;99.90;;;;;;5018275;28;20037;-80
2023/09/12 07:47:28;;;;;;;17.27;15.38;;;20.90;99.90;;;;;;5014081;28;20120;-81
2023/09/12 07:49:54;;;;;;;19.92;16.42;;;21.10;99.90;;;;;;5020517;28;20196;-82
2023/09/12 07:52:20;;;;;;;18.25;14.73;;;21.10;99.90;;;;;;5006283;28;20030;-82
2023/09/12 07:54:46;;;;;;;22.40;16.77;;;21.40;99.90;;;;;;5014892;28;20091;-83
2023/09/12 07:57:12;;;;;;;19.23;15.80;;;21.60;99.90;;;;;;5017504;28;20118;-81
2023/09/12 07:59:38;;;;;;;18.63;15.25;;;21.80;99.90;;;;;;5012754;28;20056;-79
2023/09/12 08:02:04;;;;;;;20.27;15.57;;;21.90;99.90;;;;;;5011616;28;20026;-81
2023/09/12 08:04:30;;;;;;;25.05;16.05;;;22.00;99.90;;;;;;5019886;28;20030;-81
2023/09/12 08:06:56;;;;;;;23.50;15.38;;;22.10;99.90;;;;;;5015484;28;20026;-80
2023/09/12 08:09:21;;;;;;;19.52;15.00;;;22.10;99.90;;;;;;5027932;28;20029;-81
2023/09/12 08:11:47;;;;;;;19.60;14.60;;;22.30;99.90;;;;;;5015417;28;20410;-81
2023/09/12 08:14:16;;;;;;;19.30;16.23;;;22.40;99.90;;;;;;5019551;28;20061;-80
2023/09/12 08:16:42;;;;;;;18.00;15.70;;;22.50;99.90;;;;;;5014669;28;20091;-81
2023/09/12 08:19:08;;;;;;;17.98;15.82;;;22.50;99.90;;;;;;5041771;28;20034;-81
2023/09/12 08:21:33;;;;;;;20.95;16.92;;;22.70;99.90;;;;;;5035904;28;20078;-81
2023/09/12 08:23:59;;;;;;;19.75;16.40;;;22.70;99.90;;;;;;5014129;28;20041;-80
2023/09/12 08:26:26;;;;;;;16.23;14.32;;;22.90;99.90;;;;;;5017534;28;20629;-80
2023/09/12 08:28:52;;;;;;;18.50;14.27;;;23.00;99.90;;;;;;5002709;28;20034;-80
2023/09/12 08:31:18;;;;;;;21.35;15.80;;;23.10;99.90;;;;;;5008986;28;20433;-81
2023/09/12 08:33:43;;;;;;;19.10;14.93;;;23.20;99.90;;;;;;5022857;28;20049;-80
2023/09/12 08:36:09;;;;;;;20.58;14.52;;;23.30;99.90;;;;;;5010091;28;20121;-81
2023/09/12 08:38:35;;;;;;;16.45;13.85;;;23.40;99.90;;;;;;5024643;28;20442;-80
2023/09/12 08:41:01;;;;;;;16.50;13.65;;;23.40;99.90;;;;;;5027844;28;20117;-79
2023/09/12 08:43:26;;;;;;;16.02;13.85;;;23.50;99.90;;;;;;5009818;28;20175;-81
2023/09/12 08:45:52;;;;;;;18.73;14.25;;;23.50;99.90;;;;;;5006386;28;20081;-80
2023/09/12 08:48:18;;;;;;;18.42;14.00;;;23.60;99.90;;;;;;5009385;28;20132;-80
2023/09/12 08:50:47;;;;;;;16.77;13.40;;;23.70;99.90;;;;;;5010031;28;20633;-80
2023/09/12 08:53:14;;;;;;;14.52;12.77;;;23.70;99.90;;;;;;5005988;28;20125;-81
2023/09/12 08:55:41;;;;;;;13.30;11.93;;;23.80;99.90;;;;;;5005264;28;20052;-81
2023/09/12 08:58:06;;;;;;;15.30;13.57;;;23.90;99.90;;;;;;5012908;28;20033;-81
2023/09/12 09:00:33;;;;;;;14.40;12.35;;;23.90;99.90;;;;;;5007020;28;20457;-80
2023/09/12 09:02:59;;;;;;;17.30;13.27;;;24.00;99.90;;;;;;5027867;28;20042;-81
2023/09/12 09:05:27;;;;;;;16.45;13.73;;;24.00;99.90;;;;;;5016649;28;20034;-80
2023/09/12 09:07:54;;;;;;;18.48;14.45;;;24.10;99.90;;;;;;5011063;28;20729;-81
2023/09/12 09:10:23;;;;;;;15.40;13.27;;;24.10;99.90;;;;;;5006539;28;20301;-81
2023/09/12 09:12:49;;;;;;;14.55;13.05;;;24.10;99.90;;;;;;5002466;28;20033;-81
2023/09/12 09:15:28;;;;;;;14.60;13.15;;;24.20;99.90;;;;;;5021251;28;20394;-79
2023/09/12 09:17:55;;;;;;;16.58;13.82;;;24.20;99.90;;;;;;5007514;28;20060;-80
2023/09/12 09:20:34;;;;;;;15.90;12.73;;;24.20;99.90;;;;;;5012715;28;20086;-81
2023/09/12 09:23:08;;;;;;;15.55;12.95;;;24.30;99.90;;;;;;5013631;28;20061;-80
2023/09/12 09:25:37;;;;;;;15.98;13.18;;;24.40;99.90;;;;;;5008433;28;20131;-81
2023/09/12 09:28:17;;;;;;;13.93;12.23;;;24.40;99.90;;;;;;5011670;28;20103;-81
2023/09/12 09:30:54;;;;;;;13.95;12.43;;;24.50;99.90;;;;;;5015085;28;20018;-81
2023/09/12 09:33:20;;;;;;;14.73;13.18;;;24.50;99.90;;;;;;5010121;28;20052;-81
2023/09/12 09:35:48;;;;;;;18.38;14.15;;;24.50;99.90;;;;;;5011321;28;20034;-79
2023/09/12 09:38:16;;;;;;;15.38;12.90;;;24.50;99.90;;;;;;5010585;28;20039;-81
2023/09/12 09:40:43;;;;;;;18.30;13.43;;;24.50;99.90;;;;;;5008729;28;20072;-81
2023/09/12 09:43:09;;;;;;;14.43;12.23;;;24.60;99.90;;;;;;5016819;28;20030;-80
2023/09/12 09:45:44;;;;;;;14.30;12.40;;;24.60;99.90;;;;;;5015864;28;20026;-79
2023/09/12 09:48:18;;;;;;;14.45;12.38;;;24.70;99.90;;;;;;5015836;28;20038;-81
2023/09/12 09:50:43;;;;;;;13.05;11.75;;;24.80;99.90;;;;;;5010850;28;20084;-81
2023/09/12 09:53:10;;;;;;;14.88;12.13;;;24.70;99.90;;;;;;5012980;28;20038;-81
2023/09/12 09:55:36;;;;;;;14.80;12.25;;;24.70;99.90;;;;;;5011672;28;20088;-82
2023/09/12 09:58:06;;;;;;;13.95;12.15;;;24.70;99.90;;;;;;5015664;28;20095;-80
2023/09/12 10:00:34;;;;;;;14.15;12.65;;;24.80;99.90;;;;;;5008510;28;20025;-81
2023/09/12 10:03:03;;;;;;;15.95;11.60;;;24.90;99.90;;;;;;5008762;28;20509;-81
2023/09/12 10:05:32;;;;;;;13.63;11.48;;;24.90;99.90;;;;;;5015303;28;20512;-81
2023/09/12 10:07:59;;;;;;;14.40;12.45;;;25.00;99.90;;;;;;5017111;28;20076;-80
2023/09/12 10:10:28;;;;;;;14.43;11.00;;;25.00;99.90;;;;;;5008091;28;20120;-81
2023/09/12 10:12:57;;;;;;;19.02;12.13;;;25.10;99.90;;;;;;5018196;28;20083;-82
2023/09/12 10:15:28;;;;;;;15.73;12.90;;;25.20;99.90;;;;;;5005931;28;20498;-82
2023/09/12 10:17:59;;;;;;;14.55;11.30;;;25.20;99.90;;;;;;5014627;28;20366;-80
2023/09/12 10:20:33;;;;;;;12.32;10.65;;;25.30;99.90;;;;;;5013189;28;20033;-81
2023/09/12 10:23:20;;;;;;;15.88;11.63;;;25.40;99.90;;;;;;5018862;28;20603;-80
2023/09/12 10:25:49;;;;;;;14.32;10.30;;;25.50;99.90;;;;;;5013061;28;20037;-81
2023/09/12 10:28:14;;;;;;;13.30;11.90;;;25.40;99.90;;;;;;5039936;28;20026;-82
2023/09/12 10:30:41;;;;;;;12.55;11.18;;;25.50;99.90;;;;;;5011442;28;20406;-81
2023/09/12 10:33:08;;;;;;;19.50;10.82;;;25.60;99.90;;;;;;5011425;28;20036;-81
2023/09/12 10:35:35;;;;;;;16.23;12.27;;;25.70;99.90;;;;;;5014127;28;20643;-80
2023/09/12 10:38:05;;;;;;;12.32;11.13;;;25.70;99.90;;;;;;5015515;28;20141;-80
2023/09/12 10:40:34;;;;;;;12.27;10.32;;;25.70;99.90;;;;;;5021030;28;20068;-81
2023/09/12 10:43:03;;;;;;;12.40;11.10;;;25.80;99.90;;;;;;5019312;28;20038;-81
2023/09/12 10:45:31;;;;;;;13.07;10.73;;;25.80;99.90;;;;;;5001476;28;20109;-81
2023/09/12 10:47:56;;;;;;;11.23;10.02;;;25.90;99.90;;;;;;5012257;28;20033;-80
2023/09/12 10:50:22;;;;;;;11.15;9.88;;;26.00;99.90;;;;;;5008251;28;20596;-80
2023/09/12 10:52:48;;;;;;;13.18;11.25;;;26.00;99.90;;;;;;5021165;28;20116;-81
2023/09/12 10:55:20;;;;;;;16.35;11.48;;;26.10;99.90;;;;;;5004251;28;20062;-80
2023/09/12 10:58:04;;;;;;;10.98;9.02;;;26.20;99.90;;;;;;5010037;28;20042;-80
2023/09/12 11:00:34;;;;;;;15.13;10.35;;;26.20;99.90;;;;;;5009325;28;20116;-80
2023/09/12 11:03:27;;;;;;;10.52;9.20;;;26.20;99.90;;;;;;5024602;28;20429;-80
2023/09/12 11:05:55;;;;;;;14.82;9.55;;;26.20;99.90;;;;;;5014259;28;20022;-80
2023/09/12 11:08:22;;;;;;;17.80;8.77;;;26.30;99.90;;;;;;5006742;28;20022;-82
2023/09/12 11:11:26;;;;;;;14.73;9.48;;;26.30;99.90;;;;;;5007460;28;20053;-80
2023/09/12 11:14:05;;;;;;;15.20;9.02;;;26.30;99.90;;;;;;4991537;28;20022;-80
2023/09/12 11:16:32;;;;;;;13.25;9.05;;;26.40;99.90;;;;;;4988435;28;20030;-80
2023/09/12 11:19:18;;;;;;;13.38;9.85;;;26.50;99.00;;;;;;5007877;28;20434;-80
2023/09/12 11:21:52;;;;;;;12.88;8.60;;;26.50;99.10;;;;;;5014463;28;20228;-81
2023/09/12 11:24:19;;;;;;;13.13;9.13;;;26.60;98.10;;;;;;5011161;28;20105;-80
2023/09/12 11:26:55;;;;;;;10.68;7.93;;;26.60;98.80;;;;;;5011948;28;20025;-80
2023/09/12 11:29:22;;;;;;;11.65;8.43;;;26.70;99.40;;;;;;5024536;28;20033;-80
2023/09/12 11:31:57;;;;;;;10.40;8.02;;;26.80;99.90;;;;;;5018697;28;20583;-81
2023/09/12 11:34:27;;;;;;;11.75;8.65;;;26.80;99.90;;;;;;5009966;28;20048;-80
2023/09/12 11:37:00;;;;;;;18.55;9.15;;;26.90;99.90;;;;;;5016461;28;20022;-81
2023/09/12 11:39:37;;;;;;;9.43;8.20;;;26.90;99.90;;;;;;5010757;28;20034;-81
2023/09/12 11:42:04;;;;;;;13.30;8.25;;;27.00;99.60;;;;;;5017619;28;20397;-81
2023/09/12 11:44:31;;;;;;;16.35;9.23;;;27.10;99.90;;;;;;5014157;28;20033;-81
2023/09/12 11:47:05;;;;;;;10.95;7.95;;;27.20;99.90;;;;;;5022527;28;20030;-81
2023/09/12 11:49:38;;;;;;;10.50;8.57;;;27.20;98.30;;;;;;5004022;28;20024;-81
2023/09/12 11:52:16;;;;;;;18.75;9.13;;;27.30;97.50;;;;;;5008056;28;20038;-80
2023/09/12 11:55:00;;;;;;;9.95;8.23;;;27.10;95.40;;;;;;5009016;28;20111;-80
2023/09/12 11:57:26;;;;;;;13.73;9.05;;;27.20;96.90;;;;;;5022701;28;20030;-80
2023/09/12 11:59:52;;;;;;;11.82;8.05;;;27.20;95.50;;;;;;5017615;28;20025;-80
2023/09/12 12:02:18;;;;;;;10.85;8.77;;;27.30;97.50;;;;;;5016133;28;20040;-81
2023/09/12 12:04:44;;;;;;;12.35;8.63;;;27.40;97.00;;;;;;5038119;28;20500;-81
2023/09/12 12:07:11;;;;;;;13.88;8.00;;;27.40;95.40;;;;;;5011594;28;20034;-80
2023/09/12 12:09:37;;;;;;;15.20;8.75;;;27.30;94.20;;;;;;5022643;28;20087;-82
2023/09/12 12:12:10;;;;;;;15.65;7.88;;;27.40;95.30;;;;;;5012725;28;20057;-81
2023/09/12 12:14:39;;;;;;;11.10;7.93;;;27.40;94.60;;;;;;5007571;28;20048;-82
2023/09/12 12:17:12;;;;;;;9.55;7.57;;;27.50;95.50;;;;;;5014463;28;20053;-81
2023/09/12 12:19:39;;;;;;;9.50;7.97;;;27.60;96.80;;;;;;5014376;28;20030;-81
2023/09/12 12:22:06;;;;;;;11.45;7.85;;;27.70;95.00;;;;;;5015320;28;20042;-80
2023/09/12 12:24:45;;;;;;;9.80;6.90;;;27.80;96.50;;;;;;5006437;28;20405;-81
2023/09/12 12:27:11;;;;;;;10.85;7.88;;;27.90;97.50;;;;;;5021653;28;20026;-80
2023/09/12 12:29:39;;;;;;;10.27;6.97;;;28.00;98.10;;;;;;5019078;28;20084;-80
2023/09/12 12:32:06;;;;;;;12.52;7.20;;;28.10;95.30;;;;;;5004347;28;20030;-81
2023/09/12 12:34:32;;;;;;;11.90;7.72;;;28.10;95.80;;;;;;5023357;28;20061;-80